createdAt,value
2019-04-21T00:01:30.719Z,3.47
2019-04-21T00:05:57.149Z,2.93
2019-04-21T00:10:09.061Z,3.57
2019-04-21T00:14:00.989Z,3.70
2019-04-21T00:18:03.399Z,3.67
2019-04-21T00:22:19.434Z,3.30
2019-04-21T00:26:27.861Z,3.60
2019-04-21T00:30:40.089Z,3.00
2019-04-21T00:34:23.956Z,3.10
2019-04-21T00:39:03.063Z,2.80
2019-04-21T00:42:58.530Z,3.10
2019-04-21T00:47:00.654Z,3.40
2019-04-21T00:51:25.156Z,2.80
2019-04-21T00:55:41.012Z,2.80
2019-04-21T00:59:31.856Z,2.80
2019-04-21T01:03:37.296Z,2.67
2019-04-21T01:07:41.620Z,2.90
2019-04-21T01:11:49.576Z,2.80
2019-04-21T01:15:52.819Z,3.10
2019-04-21T01:19:57.235Z,2.83
2019-04-21T01:23:46.474Z,3.50
2019-04-21T01:28:09.947Z,3.27
2019-04-21T01:32:24.192Z,3.03
2019-04-21T01:36:24.152Z,2.90
2019-04-21T01:40:34.892Z,3.23
2019-04-21T01:48:46.046Z,3.13
2019-04-21T01:53:02.350Z,3.33
2019-04-21T01:57:07.565Z,3.33
2019-04-21T02:01:22.787Z,3.00
2019-04-21T02:05:32.640Z,2.70
2019-04-21T02:09:38.981Z,2.70
2019-04-21T02:13:53.767Z,2.63
2019-04-21T02:17:54.078Z,2.83
2019-04-21T02:21:51.361Z,3.17
2019-04-21T02:26:14.094Z,3.10
2019-04-21T02:30:22.340Z,2.70
2019-04-21T02:34:32.317Z,2.90
2019-04-21T02:43:07.247Z,2.70
2019-04-21T02:50:51.215Z,2.60
2019-04-21T02:55:06.276Z,2.83
2019-04-21T02:59:23.128Z,2.37
2019-04-21T03:07:42.804Z,2.77
2019-04-21T03:12:01.489Z,2.60
2019-04-21T03:16:04.941Z,3.23
2019-04-21T03:20:03.089Z,3.00
2019-04-21T03:24:31.185Z,2.90
2019-04-21T03:28:26.290Z,3.23
2019-04-21T03:36:50.340Z,2.90
2019-04-21T03:40:37.920Z,2.70
2019-04-21T03:44:45.642Z,3.03
2019-04-21T03:49:02.358Z,2.73
2019-04-21T04:01:22.201Z,2.93
2019-04-21T04:06:09.580Z,2.90
2019-04-21T04:10:13.508Z,2.63
2019-04-21T04:18:39.118Z,2.53
2019-04-21T04:22:49.692Z,3.40
2019-04-21T04:35:10.817Z,2.80
2019-04-21T04:39:42.765Z,2.97
2019-04-21T04:43:39.534Z,3.03
2019-04-21T04:47:46.633Z,3.13
2019-04-21T04:52:19.209Z,2.60
2019-04-21T04:55:58.870Z,2.93
2019-04-21T05:00:19.859Z,3.03
2019-04-21T05:04:16.055Z,3.17
2019-04-21T05:08:34.783Z,3.17
2019-04-21T05:12:24.486Z,3.13
2019-04-21T05:16:43.189Z,3.00
2019-04-21T05:20:29.798Z,3.27
2019-04-21T05:24:28.915Z,3.17
2019-04-21T05:28:32.847Z,2.97
2019-04-21T05:33:05.633Z,3.20
2019-04-21T05:37:35.180Z,3.10
2019-04-21T05:41:36.186Z,2.87
2019-04-21T05:45:51.848Z,3.10
2019-04-21T05:50:06.513Z,2.83
2019-04-21T05:54:23.086Z,2.73
2019-04-21T05:58:26.327Z,2.90
2019-04-21T06:02:30.611Z,3.00
2019-04-21T06:06:39.501Z,2.70
2019-04-21T06:10:47.710Z,2.80
2019-04-21T06:23:02.995Z,3.00
2019-04-21T06:27:13.417Z,2.90
2019-04-21T06:31:30.784Z,3.17
2019-04-21T06:36:07.320Z,2.90
2019-04-21T06:40:12.736Z,3.20
2019-04-21T06:44:01.346Z,2.93
2019-04-21T06:48:11.220Z,2.80
2019-04-21T06:52:29.888Z,2.70
2019-04-21T06:56:23.806Z,3.20
2019-04-21T07:00:18.539Z,2.77
2019-04-21T07:04:31.744Z,3.07
2019-04-21T07:08:51.487Z,3.40
2019-04-21T07:12:39.236Z,2.80
2019-04-21T07:20:53.530Z,2.93
2019-04-21T07:25:05.682Z,3.23
2019-04-21T07:29:14.227Z,3.00
2019-04-21T07:33:44.785Z,3.37
2019-04-21T07:37:25.576Z,2.73
2019-04-21T07:41:22.740Z,3.23
2019-04-21T07:45:31.850Z,2.93
2019-04-21T07:49:57.364Z,3.00
2019-04-21T07:54:28.711Z,3.00
2019-04-21T07:58:10.786Z,2.90
2019-04-21T08:02:20.193Z,2.73
2019-04-21T08:06:31.896Z,3.10
2019-04-21T08:10:28.521Z,3.20
2019-04-21T08:14:35.289Z,3.37
2019-04-21T08:26:57.407Z,3.10
2019-04-21T08:31:01.884Z,2.80
2019-04-21T08:35:48.579Z,2.98
2019-04-21T08:39:12.741Z,2.77
2019-04-21T08:43:30.752Z,2.70
2019-04-21T08:47:25.627Z,2.70
2019-04-21T09:00:41.681Z,2.60
2019-04-21T09:04:39.625Z,2.50
2019-04-21T09:08:45.930Z,2.80
2019-04-21T09:12:56.292Z,2.40
2019-04-21T09:16:53.381Z,2.50
2019-04-21T09:21:08.909Z,2.60
2019-04-21T09:25:09.549Z,2.17
2019-04-21T09:29:05.910Z,2.47
2019-04-21T09:33:05.106Z,2.60
2019-04-21T09:37:20.802Z,2.40
2019-04-21T09:41:17.599Z,2.67
2019-04-21T09:45:22.546Z,2.40
2019-04-21T09:49:30.886Z,2.62
2019-04-21T09:53:36.434Z,2.33
2019-04-21T09:57:46.505Z,2.20
2019-04-21T10:01:57.171Z,2.42
2019-04-21T10:05:51.871Z,2.08
2019-04-21T10:09:56.337Z,2.33
2019-04-21T10:14:00.981Z,2.30
2019-04-21T10:18:10.836Z,2.20
2019-04-21T10:22:15.081Z,2.20
2019-04-21T10:26:19.394Z,2.40
2019-04-21T10:30:24.629Z,2.60
2019-04-21T10:34:29.394Z,2.40
2019-04-21T10:38:42.337Z,2.05
2019-04-21T10:42:40.424Z,2.02
2019-04-21T10:46:47.355Z,2.02
2019-04-21T10:50:50.848Z,2.00
2019-04-21T10:55:12.495Z,2.15
2019-04-21T10:59:02.434Z,2.47
2019-04-21T11:03:25.004Z,2.20
2019-04-21T11:08:07.660Z,2.30
2019-04-21T11:11:59.938Z,2.27
2019-04-21T11:16:05.486Z,2.40
2019-04-21T11:20:10.830Z,2.65
2019-04-21T11:24:16.456Z,2.62
2019-04-21T11:28:22.783Z,2.27
2019-04-21T11:32:27.391Z,2.60
2019-04-21T11:36:33.230Z,2.30
2019-04-21T11:40:38.039Z,2.20
2019-04-21T11:44:42.392Z,2.50
2019-04-21T11:48:46.632Z,2.50
2019-04-21T11:52:50.850Z,1.85
2019-04-21T11:56:55.073Z,3.30
2019-04-21T12:01:00.709Z,2.08
2019-04-21T12:05:05.574Z,2.20
2019-04-21T12:09:10.481Z,2.30
2019-04-21T12:13:16.343Z,2.70
2019-04-21T12:17:20.646Z,2.42
2019-04-21T12:21:25.511Z,2.40
2019-04-21T12:25:34.828Z,2.45
2019-04-21T12:29:39.897Z,2.33
2019-04-21T12:33:56.193Z,2.20
2019-04-21T12:38:00.647Z,2.42
2019-04-21T12:42:04.982Z,2.10
2019-04-21T12:46:09.733Z,2.42
2019-04-21T12:50:14.876Z,2.02
2019-04-21T12:54:19.671Z,2.30
2019-04-21T12:58:23.973Z,2.40
2019-04-21T13:02:29.548Z,2.17
2019-04-21T13:06:33.946Z,2.20
2019-04-21T13:10:38.223Z,2.47
2019-04-21T13:14:42.425Z,2.00
2019-04-21T13:18:47.129Z,2.45
2019-04-21T13:22:52.394Z,1.92
2019-04-21T13:26:59.556Z,2.20
2019-04-21T13:31:04.293Z,2.35
2019-04-21T13:35:10.712Z,2.17
2019-04-21T13:40:01.758Z,2.17
2019-04-21T13:43:45.441Z,1.85
2019-04-21T13:47:50.376Z,2.10
2019-04-21T13:51:56.023Z,2.10
2019-04-21T13:56:00.552Z,2.10
2019-04-21T14:00:05.891Z,2.08
2019-04-21T14:04:11.522Z,1.87
2019-04-21T14:08:15.741Z,1.60
2019-04-21T14:12:21.189Z,1.82
2019-04-21T14:16:26.615Z,1.80
2019-04-21T14:20:33.298Z,1.70
2019-04-21T14:24:38.698Z,2.08
2019-04-21T14:28:43.064Z,1.57
2019-04-21T14:32:47.709Z,1.25
2019-04-21T14:36:52.964Z,1.77
2019-04-21T14:40:57.168Z,1.50
2019-04-21T14:45:03.092Z,1.30
2019-04-21T14:49:35.293Z,1.47
2019-04-21T14:54:01.802Z,1.25
2019-04-21T14:58:07.342Z,1.30
2019-04-21T15:02:11.820Z,1.22
2019-04-21T15:06:16.070Z,1.40
2019-04-21T15:10:24.321Z,1.35
2019-04-21T15:14:26.769Z,1.20
2019-04-21T15:18:30.949Z,1.70
2019-04-21T15:22:36.432Z,1.27
2019-04-21T15:26:41.856Z,1.25
2019-04-21T15:30:47.017Z,1.37
2019-04-21T15:34:52.020Z,1.30
2019-04-21T15:38:57.938Z,1.22
2019-04-21T15:43:02.454Z,1.40
2019-04-21T15:47:08.106Z,1.30
2019-04-21T15:51:13.628Z,1.15
2019-04-21T15:55:42.378Z,1.25
2019-04-21T15:59:55.105Z,1.30
2019-04-21T16:04:00.939Z,1.30
2019-04-21T16:08:05.888Z,1.50
2019-04-21T16:12:11.598Z,1.22
2019-04-21T16:16:16.736Z,1.50
2019-04-21T16:20:21.891Z,1.32
2019-04-21T16:24:27.276Z,1.15
2019-04-21T16:28:33.200Z,1.50
2019-04-21T16:32:38.393Z,1.17
2019-04-21T16:36:43.560Z,1.20
2019-04-21T16:40:55.335Z,1.40
2019-04-21T16:44:54.800Z,1.12
2019-04-21T16:48:59.987Z,1.30
2019-04-21T16:53:17.367Z,1.17
2019-04-21T16:57:30.016Z,1.47
2019-04-21T17:01:36.443Z,1.10
2019-04-21T17:05:42.277Z,1.20
2019-04-21T17:09:46.740Z,1.30
2019-04-21T17:13:51.933Z,1.25
2019-04-21T17:18:16.235Z,1.30
2019-04-21T17:22:03.821Z,1.32
2019-04-21T17:26:08.953Z,1.40
2019-04-21T17:30:14.794Z,1.40
2019-04-21T17:34:24.668Z,1.40
2019-04-21T17:38:26.121Z,1.50
2019-04-21T17:42:42.164Z,1.60
2019-04-21T17:46:46.044Z,1.37
2019-04-21T17:50:51.562Z,1.30
2019-04-21T17:55:14.070Z,1.20
2019-04-21T17:59:46.128Z,1.30
2019-04-21T18:03:58.984Z,1.20
2019-04-21T18:07:45.401Z,1.57
2019-04-21T18:11:51.125Z,1.50
2019-04-21T18:15:51.675Z,1.40
2019-04-21T18:19:45.781Z,1.50
2019-04-21T18:24:01.327Z,1.70
2019-04-21T18:27:58.657Z,1.57
2019-04-21T18:32:02.999Z,1.80
2019-04-21T18:36:32.395Z,1.77
2019-04-21T18:40:36.867Z,1.80
2019-04-21T18:45:40.370Z,1.80
2019-04-21T18:49:21.591Z,1.90
2019-04-21T18:53:44.824Z,1.77
2019-04-21T18:57:42.851Z,1.80
2019-04-21T19:01:51.536Z,2.13
2019-04-21T19:05:54.479Z,1.73
2019-04-21T19:10:22.336Z,1.60
2019-04-21T19:14:35.650Z,1.40
2019-04-21T19:22:34.198Z,1.60
2019-04-21T19:26:46.796Z,1.60
2019-04-21T19:30:57.502Z,2.10
2019-04-21T19:34:40.404Z,1.90
2019-04-21T19:38:54.093Z,2.10
2019-04-21T19:43:00.371Z,1.80
2019-04-21T19:47:13.853Z,1.80
2019-04-21T19:51:15.184Z,1.90
2019-04-21T19:55:06.610Z,1.90
2019-04-21T19:59:18.595Z,1.80
2019-04-21T20:03:16.926Z,1.70
2019-04-21T20:07:38.128Z,1.50
2019-04-21T20:11:41.967Z,2.00
2019-04-21T20:15:54.029Z,2.30
2019-04-21T20:19:40.282Z,1.90
2019-04-21T20:23:45.163Z,2.03
2019-04-21T20:28:00.701Z,1.90
2019-04-21T20:32:20.047Z,2.43
2019-04-21T20:36:21.057Z,2.57
2019-04-21T20:40:21.799Z,2.70
2019-04-21T20:44:29.520Z,2.23
2019-04-21T20:48:34.445Z,2.97
2019-04-21T20:52:50.889Z,2.93
2019-04-21T20:56:49.710Z,2.60
2019-04-21T21:01:19.004Z,2.30
2019-04-21T21:04:52.693Z,2.17
2019-04-21T21:09:06.121Z,2.07
2019-04-21T21:13:21.197Z,2.27
2019-04-21T21:17:36.096Z,2.30
2019-04-21T21:21:24.439Z,2.10
2019-04-21T21:25:41.811Z,2.33
2019-04-21T21:29:41.857Z,2.50
2019-04-21T21:33:50.662Z,2.50
2019-04-21T21:37:54.898Z,2.53
2019-04-21T21:41:45.213Z,2.60
2019-04-21T21:45:49.953Z,2.57
2019-04-21T21:50:01.245Z,2.50
2019-04-21T21:53:59.029Z,2.23
2019-04-21T21:58:05.814Z,2.50
2019-04-21T22:02:16.661Z,2.37
2019-04-21T22:06:21.513Z,2.57
2019-04-21T22:10:23.175Z,2.47
2019-04-21T22:14:33.987Z,2.93
2019-04-21T22:18:56.789Z,2.70
2019-04-21T22:22:53.620Z,2.83
2019-04-21T22:26:47.298Z,2.63
2019-04-21T22:30:54.675Z,2.60
2019-04-21T22:35:01.980Z,2.60
2019-04-21T22:39:21.006Z,2.57
2019-04-21T22:43:19.656Z,2.67
2019-04-21T22:47:22.004Z,2.70
2019-04-21T22:51:30.266Z,2.80
2019-04-21T22:55:31.623Z,2.60
2019-04-21T22:59:35.647Z,2.47
2019-04-21T23:03:50.152Z,2.53
2019-04-21T23:07:50.202Z,3.20
2019-04-21T23:11:56.230Z,2.80
2019-04-21T23:16:01.315Z,3.00
2019-04-21T23:20:27.800Z,2.83
2019-04-21T23:24:35.503Z,2.90
2019-04-21T23:28:42.206Z,2.60
2019-04-21T23:32:35.961Z,2.40
2019-04-21T23:36:32.231Z,2.93
2019-04-21T23:40:39.783Z,3.03
2019-04-21T23:44:47.508Z,2.83
2019-04-21T23:49:02.357Z,2.60
2019-04-21T23:52:55.130Z,2.70
2019-04-21T23:57:05.046Z,2.70
